Time;durP1;ratioP1;P1;durP2;ratioP2;P2;SDS_P1;SDS_P2;PMS_P1;PMS_P2;Temp;Humidity;BMP_temperature;BMP_pressure;BME280_temperature;BME280_humidity;BME280_pressure;Samples;Min_cycle;Max_cycle;Signal;HPM_P1;HPM_P2
2024/04/26 00:00:14;;;;;;;1.13;1.13;;;;;;;;;;5416090;26;20232;-79
2024/04/26 00:02:46;;;;;;;1.40;1.30;;;;;;;;;;5418755;26;20282;-80
2024/04/26 00:05:14;;;;;;;1.30;1.20;;;;;;;;;;5415885;26;20223;-80
2024/04/26 00:07:43;;;;;;;1.10;1.10;;;;;;;;;;5416291;26;20273;-80
2024/04/26 00:10:09;;;;;;;0.97;0.97;;;;;;;;;;5416183;26;20263;-80
2024/04/26 00:12:37;;;;;;;1.10;1.10;;;;;;;;;;5419402;26;20239;-79
2024/04/26 00:15:09;;;;;;;1.13;1.13;;;;;;;;;;5415611;26;20779;-80
2024/04/26 00:17:37;;;;;;;0.80;0.80;;;;;;;;;;5416569;26;20235;-80
2024/04/26 00:20:06;;;;;;;1.03;1.03;;;;;;;;;;5415292;26;20235;-80
2024/04/26 00:22:35;;;;;;;0.90;0.90;;;;;;;;;;5419932;26;20228;-80
2024/04/26 00:25:03;;;;;;;0.80;0.80;;;;;;;;;;5419611;26;20273;-80
2024/04/26 00:27:31;;;;;;;1.00;1.00;;;;;;;;;;5419862;26;20239;-80
2024/04/26 00:30:00;;;;;;;2.00;0.97;;;;;;;;;;5419445;26;20281;-79
2024/04/26 00:32:31;;;;;;;1.20;1.10;;;;;;;;;;5419690;26;20228;-81
2024/04/26 00:34:59;;;;;;;1.00;1.00;;;;;;;;;;5419676;26;20366;-80
2024/04/26 00:37:28;;;;;;;1.13;1.13;;;;;;;;;;5419035;26;20227;-80
2024/04/26 00:39:56;;;;;;;0.83;0.83;;;;;;;;;;5419030;26;20235;-80
2024/04/26 00:42:25;;;;;;;2.13;1.03;;;;;;;;;;5419268;26;20711;-80
2024/04/26 00:44:53;;;;;;;0.90;0.90;;;;;;;;;;5419227;26;20239;-80
2024/04/26 00:47:22;;;;;;;1.00;1.00;;;;;;;;;;5419542;26;20231;-80
2024/04/26 00:49:53;;;;;;;1.10;1.10;;;;;;;;;;5419627;26;20295;-80
2024/04/26 00:52:21;;;;;;;0.70;0.70;;;;;;;;;;5419358;26;20737;-80
2024/04/26 00:54:50;;;;;;;2.40;1.30;;;;;;;;;;5419706;26;20231;-80
2024/04/26 00:57:19;;;;;;;1.00;1.00;;;;;;;;;;5418447;26;20228;-80
2024/04/26 00:59:47;;;;;;;0.90;0.90;;;;;;;;;;5419367;26;20810;-80
2024/04/26 01:02:17;;;;;;;0.90;0.90;;;;;;;;;;5419058;26;20228;-80
2024/04/26 01:04:45;;;;;;;1.27;1.17;;;;;;;;;;5419419;26;20771;-80
2024/04/26 01:07:16;;;;;;;1.00;1.00;;;;;;;;;;5419089;26;20773;-80
2024/04/26 01:09:45;;;;;;;2.23;1.90;;;;;;;;;;5418545;26;20281;-80
2024/04/26 01:12:13;;;;;;;1.77;1.53;;;;;;;;;;5419583;26;20274;-80
2024/04/26 01:14:42;;;;;;;1.50;1.40;;;;;;;;;;5418421;26;20274;-80
2024/04/26 01:17:10;;;;;;;2.80;1.30;;;;;;;;;;5418915;26;20239;-80
2024/04/26 01:19:38;;;;;;;1.30;1.20;;;;;;;;;;5418732;26;20293;-80
2024/04/26 01:22:12;;;;;;;5.07;4.67;;;;;;;;;;5419192;26;20239;-80
2024/04/26 01:24:43;;;;;;;10.00;6.50;;;;;;;;;;5418466;26;20239;-80
2024/04/26 01:27:12;;;;;;;3.63;3.33;;;;;;;;;;5418620;26;20239;-80
2024/04/26 01:29:40;;;;;;;2.27;2.07;;;;;;;;;;5419013;26;20231;-80
2024/04/26 01:32:09;;;;;;;3.17;2.97;;;;;;;;;;5418883;26;20780;-80
2024/04/26 01:34:38;;;;;;;3.10;2.80;;;;;;;;;;5418504;26;20239;-80
2024/04/26 01:37:07;;;;;;;4.10;2.47;;;;;;;;;;5419130;26;20621;-80
2024/04/26 01:39:36;;;;;;;1.50;1.40;;;;;;;;;;5418627;26;20231;-80
2024/04/26 01:42:07;;;;;;;1.40;1.30;;;;;;;;;;5419120;26;20282;-80
2024/04/26 01:44:35;;;;;;;1.50;1.40;;;;;;;;;;5418463;26;20373;-80
2024/04/26 01:47:04;;;;;;;1.57;1.47;;;;;;;;;;5418632;26;20232;-80
2024/04/26 01:49:32;;;;;;;1.00;1.00;;;;;;;;;;5395692;26;20344;-80
2024/04/26 01:51:58;;;;;;;1.20;1.20;;;;;;;;;;5418103;26;20239;-80
2024/04/26 01:54:26;;;;;;;1.00;1.00;;;;;;;;;;5420701;26;20587;-80
2024/04/26 01:56:52;;;;;;;1.93;1.23;;;;;;;;;;5418259;26;20337;-80
2024/04/26 01:59:23;;;;;;;1.90;1.07;;;;;;;;;;5421040;26;20575;-80
2024/04/26 02:01:49;;;;;;;1.40;1.30;;;;;;;;;;5418510;26;20239;-80
2024/04/26 02:04:17;;;;;;;2.40;1.23;;;;;;;;;;5420803;26;20236;-80
2024/04/26 02:06:43;;;;;;;1.13;1.13;;;;;;;;;;5418271;26;20228;-80
2024/04/26 02:09:11;;;;;;;1.40;1.30;;;;;;;;;;5420876;26;20382;-80
2024/04/26 02:11:37;;;;;;;0.93;0.93;;;;;;;;;;5417966;26;20286;-80
2024/04/26 02:14:05;;;;;;;1.10;1.00;;;;;;;;;;5420604;26;20283;-80
2024/04/26 02:16:34;;;;;;;1.80;1.70;;;;;;;;;;5417300;26;20235;-80
2024/04/26 02:19:02;;;;;;;1.90;1.70;;;;;;;;;;5421086;26;20567;-80
2024/04/26 02:21:30;;;;;;;1.63;1.47;;;;;;;;;;5417910;26;20235;-80
2024/04/26 02:23:59;;;;;;;3.07;1.77;;;;;;;;;;5417658;26;20601;-80
2024/04/26 02:26:27;;;;;;;1.30;1.20;;;;;;;;;;5418288;26;20235;-80
2024/04/26 02:28:53;;;;;;;1.77;1.20;;;;;;;;;;5418023;26;20595;-80
2024/04/26 02:31:22;;;;;;;1.40;1.30;;;;;;;;;;5420469;26;20240;-80
2024/04/26 02:33:53;;;;;;;1.40;1.30;;;;;;;;;;5417767;26;20270;-80
2024/04/26 02:36:22;;;;;;;1.60;1.50;;;;;;;;;;5417616;26;20761;-80
2024/04/26 02:38:50;;;;;;;1.67;1.57;;;;;;;;;;5418100;26;20651;-80
2024/04/26 02:41:19;;;;;;;1.17;1.17;;;;;;;;;;5417273;26;20231;-80
2024/04/26 02:43:47;;;;;;;1.43;1.33;;;;;;;;;;5416450;26;20295;-80
2024/04/26 02:46:15;;;;;;;4.00;1.80;;;;;;;;;;5417733;26;20250;-80
2024/04/26 02:48:44;;;;;;;5.63;3.70;;;;;;;;;;5417760;26;20274;-81
2024/04/26 02:51:15;;;;;;;6.87;5.27;;;;;;;;;;5417534;26;20236;-81
2024/04/26 02:53:44;;;;;;;2.27;1.80;;;;;;;;;;5417839;26;20228;-80
2024/04/26 02:56:12;;;;;;;1.70;1.53;;;;;;;;;;5417591;26;20368;-81
2024/04/26 02:58:41;;;;;;;2.10;1.90;;;;;;;;;;5417894;26;20235;-80
2024/04/26 03:01:09;;;;;;;1.43;1.33;;;;;;;;;;5417431;26;20278;-80
2024/04/26 03:03:38;;;;;;;1.67;1.57;;;;;;;;;;5417792;26;20231;-80
2024/04/26 03:06:08;;;;;;;2.87;2.23;;;;;;;;;;5417750;26;20703;-80
2024/04/26 03:08:40;;;;;;;2.33;2.13;;;;;;;;;;5418092;26;20235;-80
2024/04/26 03:11:11;;;;;;;4.03;2.23;;;;;;;;;;5417540;26;20286;-80
2024/04/26 03:13:43;;;;;;;4.83;3.00;;;;;;;;;;5417410;26;20729;-80
2024/04/26 03:16:11;;;;;;;2.83;2.03;;;;;;;;;;5417189;26;20236;-80
2024/04/26 03:18:39;;;;;;;1.87;1.73;;;;;;;;;;5417582;26;20235;-80
2024/04/26 03:21:08;;;;;;;2.70;2.20;;;;;;;;;;5416806;26;20232;-80
2024/04/26 03:23:39;;;;;;;38.73;19.93;;;;;;;;;;5417143;26;20239;-80
2024/04/26 03:26:12;;;;;;;76.40;35.63;;;;;;;;;;5417152;26;20346;-80
2024/04/26 03:28:40;;;;;;;45.17;22.77;;;;;;;;;;5418114;26;20227;-80
2024/04/26 03:31:09;;;;;;;26.83;13.90;;;;;;;;;;5417094;26;22808;-80
2024/04/26 03:33:37;;;;;;;5.63;3.67;;;;;;;;;;5417109;26;20692;-80
2024/04/26 03:36:06;;;;;;;3.67;2.50;;;;;;;;;;5416656;26;20587;-80
2024/04/26 03:38:35;;;;;;;4.63;3.63;;;;;;;;;;5417564;26;20725;-80
2024/04/26 03:41:06;;;;;;;10.70;7.17;;;;;;;;;;5416685;26;20231;-80
2024/04/26 03:43:35;;;;;;;10.30;8.47;;;;;;;;;;5416805;26;20356;-80
2024/04/26 03:46:04;;;;;;;9.67;8.23;;;;;;;;;;5416606;26;20634;-80
2024/04/26 03:48:32;;;;;;;8.27;4.10;;;;;;;;;;5416523;26;20235;-80
2024/04/26 03:51:01;;;;;;;2.37;2.07;;;;;;;;;;5416566;26;20239;-80
2024/04/26 03:53:29;;;;;;;3.43;2.00;;;;;;;;;;5416989;26;20580;-80
2024/04/26 03:55:57;;;;;;;1.77;1.67;;;;;;;;;;5416421;26;20576;-80
2024/04/26 03:58:28;;;;;;;1.60;1.50;;;;;;;;;;5416755;26;20235;-80
2024/04/26 04:00:57;;;;;;;3.00;2.80;;;;;;;;;;5415803;26;20619;-80
2024/04/26 04:03:25;;;;;;;3.20;2.83;;;;;;;;;;5416453;26;20235;-80
2024/04/26 04:05:54;;;;;;;2.60;2.30;;;;;;;;;;5416453;26;20570;-80
2024/04/26 04:08:22;;;;;;;2.60;2.40;;;;;;;;;;5415982;26;21039;-80
2024/04/26 04:10:51;;;;;;;3.87;1.70;;;;;;;;;;5416107;26;20331;-81
2024/04/26 04:13:21;;;;;;;6.47;4.83;;;;;;;;;;5415888;26;20706;-80
2024/04/26 04:15:52;;;;;;;4.77;4.37;;;;;;;;;;5416235;26;20733;-80
2024/04/26 04:18:20;;;;;;;4.00;3.70;;;;;;;;;;5408390;26;20779;-80
2024/04/26 04:20:49;;;;;;;2.70;2.50;;;;;;;;;;5400401;26;20607;-81
2024/04/26 04:23:20;;;;;;;3.70;2.93;;;;;;;;;;5412538;26;20725;-81
2024/04/26 04:25:49;;;;;;;6.33;2.40;;;;;;;;;;5415776;26;20282;-80
2024/04/26 04:28:18;;;;;;;2.30;2.10;;;;;;;;;;5416142;26;20290;-80
2024/04/26 04:30:46;;;;;;;1.80;1.70;;;;;;;;;;5415666;26;20251;-81
2024/04/26 04:33:19;;;;;;;1.80;1.70;;;;;;;;;;5415405;26;20231;-80
2024/04/26 04:35:48;;;;;;;1.90;1.77;;;;;;;;;;5413280;26;20279;-80
2024/04/26 04:38:16;;;;;;;1.50;1.40;;;;;;;;;;5415677;26;20239;-82
2024/04/26 04:40:45;;;;;;;2.03;1.83;;;;;;;;;;5413058;26;20236;-80
2024/04/26 04:43:13;;;;;;;1.60;1.50;;;;;;;;;;5412990;26;20326;-80
2024/04/26 04:45:42;;;;;;;1.80;1.70;;;;;;;;;;5411609;26;20773;-80
2024/04/26 04:48:11;;;;;;;1.80;1.70;;;;;;;;;;5415162;26;20332;-78
2024/04/26 04:50:42;;;;;;;1.50;1.40;;;;;;;;;;5416016;26;20773;-81
2024/04/26 04:53:10;;;;;;;1.63;1.53;;;;;;;;;;5415525;26;20239;-81
2024/04/26 04:55:39;;;;;;;2.63;1.87;;;;;;;;;;5404369;26;20245;-81
2024/04/26 04:58:07;;;;;;;1.73;1.63;;;;;;;;;;5404263;26;20274;-81
2024/04/26 05:00:36;;;;;;;1.80;1.70;;;;;;;;;;5408006;26;20240;-78
2024/04/26 05:03:04;;;;;;;1.70;1.60;;;;;;;;;;5398908;26;20307;-78
2024/04/26 05:05:32;;;;;;;2.03;1.93;;;;;;;;;;5414407;26;20278;-78
2024/04/26 05:08:05;;;;;;;2.00;1.90;;;;;;;;;;5417154;26;20683;-78
2024/04/26 05:10:33;;;;;;;2.43;2.00;;;;;;;;;;5418403;26;20243;-79
2024/04/26 05:13:01;;;;;;;2.33;2.10;;;;;;;;;;5418459;26;20282;-79
2024/04/26 05:15:30;;;;;;;1.83;1.73;;;;;;;;;;5418298;26;20372;-79
2024/04/26 05:17:58;;;;;;;2.20;2.10;;;;;;;;;;5418518;26;20286;-79
2024/04/26 05:20:27;;;;;;;2.90;2.60;;;;;;;;;;5418460;26;20228;-80
2024/04/26 05:22:55;;;;;;;2.50;2.30;;;;;;;;;;5404007;26;20730;-80
2024/04/26 05:25:27;;;;;;;2.87;2.60;;;;;;;;;;5418553;26;20282;-80
2024/04/26 05:27:56;;;;;;;2.77;2.37;;;;;;;;;;5418816;26;20236;-80
2024/04/26 05:30:24;;;;;;;1.83;1.73;;;;;;;;;;5418223;26;20228;-80
2024/04/26 05:32:52;;;;;;;2.30;2.13;;;;;;;;;;5418743;26;20240;-80
2024/04/26 05:35:21;;;;;;;2.77;2.57;;;;;;;;;;5410058;26;20283;-80
2024/04/26 05:37:49;;;;;;;2.50;2.30;;;;;;;;;;5411577;26;20274;-80
2024/04/26 05:40:19;;;;;;;2.17;2.07;;;;;;;;;;5417593;26;20236;-80
2024/04/26 05:42:50;;;;;;;2.03;1.93;;;;;;;;;;5418376;26;20274;-80
2024/04/26 05:45:18;;;;;;;2.17;2.03;;;;;;;;;;5418354;26;20331;-79
2024/04/26 05:47:48;;;;;;;2.63;2.43;;;;;;;;;;5418557;26;20708;-79
2024/04/26 05:50:16;;;;;;;2.23;2.03;;;;;;;;;;5418035;26;20286;-80
2024/04/26 05:52:44;;;;;;;2.30;2.10;;;;;;;;;;5401535;26;20373;-80
2024/04/26 05:55:13;;;;;;;4.43;2.80;;;;;;;;;;5411944;26;20236;-80
2024/04/26 05:57:42;;;;;;;9.23;2.37;;;;;;;;;;5418923;26;20231;-80
2024/04/26 06:00:13;;;;;;;1.83;1.73;;;;;;;;;;5417577;26;20235;-81
2024/04/26 06:02:43;;;;;;;2.00;1.90;;;;;;;;;;5418341;26;20235;-80
2024/04/26 06:05:12;;;;;;;2.07;1.97;;;;;;;;;;5417766;26;20627;-80
2024/04/26 06:07:41;;;;;;;2.27;2.07;;;;;;;;;;5412700;26;20316;-81
2024/04/26 06:10:09;;;;;;;2.43;2.23;;;;;;;;;;5415448;26;20290;-81
2024/04/26 06:12:40;;;;;;;2.40;2.20;;;;;;;;;;5418505;26;20278;-81
2024/04/26 06:15:09;;;;;;;2.50;2.30;;;;;;;;;;5417636;26;20267;-81
2024/04/26 06:17:40;;;;;;;2.40;2.20;;;;;;;;;;5417896;26;20239;-81
2024/04/26 06:20:09;;;;;;;1.80;1.70;;;;;;;;;;5418003;26;20582;-81
2024/04/26 06:22:38;;;;;;;2.17;2.00;;;;;;;;;;5417910;26;20240;-82
2024/04/26 06:25:07;;;;;;;2.47;2.10;;;;;;;;;;5417792;26;20228;-81
2024/04/26 06:27:36;;;;;;;2.30;2.17;;;;;;;;;;5417203;26;20357;-82
2024/04/26 06:30:05;;;;;;;3.93;2.30;;;;;;;;;;5406135;26;20290;-82
2024/04/26 06:32:33;;;;;;;2.43;2.23;;;;;;;;;;5407610;26;20340;-81
2024/04/26 06:35:04;;;;;;;2.60;2.40;;;;;;;;;;5417952;26;20235;-81
2024/04/26 06:37:33;;;;;;;2.80;2.60;;;;;;;;;;5414764;26;20361;-81
2024/04/26 06:39:58;;;;;;;3.43;2.30;;;;;;;;;;5417067;26;20243;-81
2024/04/26 06:42:27;;;;;;;2.50;2.40;;;;;;;;;;5420065;26;20290;-81
2024/04/26 06:44:55;;;;;;;3.23;2.60;;;;;;;;;;5417579;26;20287;-81
2024/04/26 06:47:24;;;;;;;4.60;3.20;;;;;;;;;;5416977;26;20573;-81
2024/04/26 06:49:53;;;;;;;2.60;2.40;;;;;;;;;;5408266;26;20749;-81
2024/04/26 06:52:24;;;;;;;4.17;3.00;;;;;;;;;;5417782;26;20362;-81
2024/04/26 06:54:52;;;;;;;2.63;2.43;;;;;;;;;;5417288;26;20787;-82
2024/04/26 06:57:21;;;;;;;3.33;2.53;;;;;;;;;;5410396;26;20339;-82
2024/04/26 06:59:49;;;;;;;2.47;2.37;;;;;;;;;;5416442;26;20584;-81
2024/04/26 07:02:18;;;;;;;3.00;2.27;;;;;;;;;;5410672;26;20349;-82
2024/04/26 07:04:43;;;;;;;3.60;2.50;;;;;;;;;;5417299;26;20274;-82
2024/04/26 07:07:12;;;;;;;2.57;2.37;;;;;;;;;;5417506;26;20572;-81
2024/04/26 07:09:43;;;;;;;2.87;2.67;;;;;;;;;;5415883;26;20564;-82
2024/04/26 07:12:12;;;;;;;2.93;2.63;;;;;;;;;;5416269;26;20361;-82
2024/04/26 07:14:40;;;;;;;2.70;2.50;;;;;;;;;;5415946;26;20232;-82
2024/04/26 07:17:08;;;;;;;2.90;2.70;;;;;;;;;;5417013;26;20274;-82
2024/04/26 07:19:39;;;;;;;2.67;2.47;;;;;;;;;;5406390;26;20374;-82
2024/04/26 07:22:08;;;;;;;2.20;2.10;;;;;;;;;;5394590;26;20228;-82
2024/04/26 07:24:37;;;;;;;2.23;2.10;;;;;;;;;;5416776;26;20286;-82
2024/04/26 07:27:08;;;;;;;2.13;2.03;;;;;;;;;;5416894;26;20278;-82
2024/04/26 07:29:36;;;;;;;2.40;2.20;;;;;;;;;;5415442;26;20236;-82
2024/04/26 07:32:05;;;;;;;2.03;1.87;;;;;;;;;;5417102;26;20274;-82
2024/04/26 07:34:33;;;;;;;1.90;1.80;;;;;;;;;;5416662;26;20233;-82
2024/04/26 07:37:02;;;;;;;1.80;1.67;;;;;;;;;;5416527;26;20288;-82
2024/04/26 07:39:30;;;;;;;1.20;1.20;;;;;;;;;;5416809;26;20299;-83
2024/04/26 07:41:58;;;;;;;2.10;1.90;;;;;;;;;;5415815;26;20569;-83
2024/04/26 07:44:30;;;;;;;1.77;1.67;;;;;;;;;;5415807;26;20311;-83
2024/04/26 07:46:58;;;;;;;1.97;1.63;;;;;;;;;;5415782;26;21140;-83
2024/04/26 07:49:30;;;;;;;1.70;1.60;;;;;;;;;;5415337;26;20273;-82
2024/04/26 07:51:58;;;;;;;1.27;1.23;;;;;;;;;;5415974;26;20247;-82
2024/04/26 07:54:27;;;;;;;1.53;1.43;;;;;;;;;;5415861;26;20932;-82
2024/04/26 07:56:55;;;;;;;1.40;1.30;;;;;;;;;;5416156;26;20269;-82
2024/04/26 07:59:24;;;;;;;2.57;1.50;;;;;;;;;;5416803;26;20756;-83
2024/04/26 08:01:57;;;;;;;1.77;1.50;;;;;;;;;;5416425;26;20274;-82
2024/04/26 08:04:25;;;;;;;2.97;2.77;;;;;;;;;;5416689;26;20242;-82
2024/04/26 08:06:54;;;;;;;3.57;2.10;;;;;;;;;;5416289;26;20637;-83
2024/04/26 08:09:23;;;;;;;1.47;1.30;;;;;;;;;;5416918;26;20298;-83
2024/04/26 08:11:51;;;;;;;1.83;1.73;;;;;;;;;;5416251;26;20311;-83
2024/04/26 08:14:19;;;;;;;1.80;1.70;;;;;;;;;;5416378;26;20569;-83
2024/04/26 08:16:48;;;;;;;1.70;1.60;;;;;;;;;;5415643;26;20362;-83
2024/04/26 08:19:21;;;;;;;1.47;1.40;;;;;;;;;;5416030;26;20231;-83
2024/04/26 08:21:49;;;;;;;1.57;1.47;;;;;;;;;;5392851;26;20624;-83
2024/04/26 08:24:17;;;;;;;1.40;1.30;;;;;;;;;;5416298;26;20307;-82
2024/04/26 08:26:46;;;;;;;1.77;1.67;;;;;;;;;;5416354;26;20277;-83
2024/04/26 08:29:14;;;;;;;3.33;2.03;;;;;;;;;;5415735;26;20307;-83
2024/04/26 08:31:43;;;;;;;1.70;1.60;;;;;;;;;;5415756;26;20291;-83
2024/04/26 08:34:11;;;;;;;2.37;1.47;;;;;;;;;;5416226;26;20604;-83
2024/04/26 08:36:43;;;;;;;2.47;2.27;;;;;;;;;;5415588;26;20232;-83
2024/04/26 08:39:12;;;;;;;1.87;1.77;;;;;;;;;;5416189;26;20243;-83
2024/04/26 08:41:41;;;;;;;1.70;1.60;;;;;;;;;;5416195;26;20236;-83
2024/04/26 08:44:10;;;;;;;1.80;1.70;;;;;;;;;;5418659;26;20301;-84
2024/04/26 08:46:39;;;;;;;1.93;1.80;;;;;;;;;;5401220;26;20299;-83
2024/04/26 08:49:09;;;;;;;1.60;1.50;;;;;;;;;;5414553;26;20281;-84
2024/04/26 08:51:40;;;;;;;2.03;1.93;;;;;;;;;;5419293;26;20377;-84
2024/04/26 08:54:11;;;;;;;1.83;1.73;;;;;;;;;;5419265;26;20239;-85
2024/04/26 08:56:42;;;;;;;2.13;1.97;;;;;;;;;;5419196;26;20232;-84
2024/04/26 08:59:11;;;;;;;2.13;1.73;;;;;;;;;;5395951;26;20299;-84
2024/04/26 09:01:40;;;;;;;1.77;1.67;;;;;;;;;;5418814;26;20576;-85
2024/04/26 09:04:09;;;;;;;2.47;2.27;;;;;;;;;;5418871;26;20577;-84
2024/04/26 09:06:38;;;;;;;1.90;1.80;;;;;;;;;;5418700;26;20239;-84
2024/04/26 09:09:06;;;;;;;3.07;2.07;;;;;;;;;;5418500;26;20282;-85
2024/04/26 09:11:40;;;;;;;1.83;1.73;;;;;;;;;;5418524;26;20286;-85
2024/04/26 09:14:09;;;;;;;2.27;2.17;;;;;;;;;;5419358;26;20235;-85
2024/04/26 09:16:39;;;;;;;2.30;2.20;;;;;;;;;;5418380;26;20573;-84
2024/04/26 09:19:09;;;;;;;2.37;2.23;;;;;;;;;;5418700;26;20286;-84
2024/04/26 09:21:38;;;;;;;2.00;1.90;;;;;;;;;;5418530;26;20290;-84
2024/04/26 09:24:06;;;;;;;3.73;2.00;;;;;;;;;;5418912;26;20343;-84
2024/04/26 09:26:38;;;;;;;2.20;2.10;;;;;;;;;;5418291;26;20296;-84
2024/04/26 09:29:07;;;;;;;2.03;1.93;;;;;;;;;;5418624;26;20235;-85
2024/04/26 09:31:35;;;;;;;2.00;1.90;;;;;;;;;;5418405;26;20231;-84
2024/04/26 09:34:06;;;;;;;3.00;2.40;;;;;;;;;;5418828;26;20239;-85
2024/04/26 09:36:36;;;;;;;5.23;4.47;;;;;;;;;;5418277;26;20239;-84
2024/04/26 09:39:05;;;;;;;4.83;2.60;;;;;;;;;;5418668;26;20730;-85
2024/04/26 09:41:44;;;;;;;2.20;2.00;;;;;;;;;;5418599;26;20239;-85
2024/04/26 09:44:13;;;;;;;1.90;1.80;;;;;;;;;;5394480;26;20235;-85
2024/04/26 09:46:41;;;;;;;2.10;2.00;;;;;;;;;;5418039;26;20562;-86
2024/04/26 09:49:10;;;;;;;1.97;1.87;;;;;;;;;;5418335;26;20278;-86
2024/04/26 09:51:39;;;;;;;2.33;1.77;;;;;;;;;;5418412;26;20235;-85
2024/04/26 09:54:10;;;;;;;2.13;1.93;;;;;;;;;;5417920;26;20693;-85
2024/04/26 09:56:44;;;;;;;1.77;1.67;;;;;;;;;;5418116;26;20231;-85
2024/04/26 09:59:13;;;;;;;1.83;1.57;;;;;;;;;;5418468;26;20278;-85
2024/04/26 10:01:42;;;;;;;1.70;1.60;;;;;;;;;;5418396;26;20240;-85
2024/04/26 10:04:11;;;;;;;1.80;1.70;;;;;;;;;;5418263;26;20282;-85
2024/04/26 10:06:42;;;;;;;2.17;1.87;;;;;;;;;;5393583;26;20570;-86
2024/04/26 10:09:12;;;;;;;1.67;1.57;;;;;;;;;;5418253;26;20772;-85
2024/04/26 10:11:52;;;;;;;1.70;1.60;;;;;;;;;;5417575;26;20228;-85
2024/04/26 10:14:32;;;;;;;1.90;1.80;;;;;;;;;;5418389;26;20282;-85
2024/04/26 10:17:11;;;;;;;1.80;1.70;;;;;;;;;;5417857;26;20227;-86
2024/04/26 10:19:39;;;;;;;1.83;1.73;;;;;;;;;;5394192;26;20572;-85
2024/04/26 10:22:08;;;;;;;1.50;1.40;;;;;;;;;;5418324;26;20631;-86
2024/04/26 10:24:38;;;;;;;1.97;1.87;;;;;;;;;;5417278;26;20281;-85
2024/04/26 10:27:10;;;;;;;2.27;2.00;;;;;;;;;;5418266;26;20231;-86
2024/04/26 10:29:38;;;;;;;1.73;1.63;;;;;;;;;;5417939;26;20235;-86
2024/04/26 10:32:08;;;;;;;2.80;2.10;;;;;;;;;;5417491;26;20228;-85
2024/04/26 10:34:36;;;;;;;2.00;1.63;;;;;;;;;;5417708;26;20235;-85
2024/04/26 10:37:06;;;;;;;2.87;1.70;;;;;;;;;;5417851;26;20539;-85
2024/04/26 10:39:34;;;;;;;3.20;1.93;;;;;;;;;;5418413;26;20277;-86
2024/04/26 10:42:03;;;;;;;3.87;2.03;;;;;;;;;;5417890;26;20700;-85
2024/04/26 10:44:34;;;;;;;3.10;2.47;;;;;;;;;;5394325;26;20295;-86
2024/04/26 10:47:03;;;;;;;2.00;1.90;;;;;;;;;;5417530;26;20231;-86
2024/04/26 10:49:33;;;;;;;1.80;1.70;;;;;;;;;;5417964;26;20622;-85
2024/04/26 10:52:02;;;;;;;2.20;2.07;;;;;;;;;;5417295;26;20235;-85
2024/04/26 10:54:30;;;;;;;2.13;1.93;;;;;;;;;;5417455;26;20279;-86
2024/04/26 10:57:00;;;;;;;2.00;1.90;;;;;;;;;;5417371;26;20232;-86
2024/04/26 10:59:30;;;;;;;1.60;1.50;;;;;;;;;;5417433;26;20243;-85
2024/04/26 11:02:02;;;;;;;2.20;2.10;;;;;;;;;;5411473;26;20271;-86
2024/04/26 11:04:33;;;;;;;1.73;1.63;;;;;;;;;;5400657;26;20227;-86
2024/04/26 11:07:13;;;;;;;2.30;2.10;;;;;;;;;;5417565;26;20278;-86
2024/04/26 11:09:46;;;;;;;3.43;2.03;;;;;;;;;;5417283;26;20710;-86
2024/04/26 11:12:15;;;;;;;1.87;1.77;;;;;;;;;;5395267;26;20281;-86
2024/04/26 11:14:43;;;;;;;1.43;1.33;;;;;;;;;;5417549;26;20236;-86
2024/04/26 11:17:14;;;;;;;1.63;1.53;;;;;;;;;;5417478;26;20307;-85
2024/04/26 11:19:43;;;;;;;1.73;1.63;;;;;;;;;;5393117;26;20240;-85
2024/04/26 11:22:11;;;;;;;1.77;1.67;;;;;;;;;;5417347;26;20278;-86
2024/04/26 11:24:40;;;;;;;2.10;2.00;;;;;;;;;;5416585;26;22388;-87
2024/04/26 11:27:10;;;;;;;2.20;2.00;;;;;;;;;;5417425;26;20231;-86
2024/04/26 11:29:38;;;;;;;4.50;3.10;;;;;;;;;;5416827;26;20239;-86
2024/04/26 11:32:07;;;;;;;1.87;1.77;;;;;;;;;;5417212;26;20634;-86
2024/04/26 11:34:38;;;;;;;1.77;1.67;;;;;;;;;;5409792;26;20241;-86
2024/04/26 11:37:07;;;;;;;1.60;1.50;;;;;;;;;;5402427;26;20251;-86
2024/04/26 11:39:36;;;;;;;2.17;1.50;;;;;;;;;;5416633;26;20240;-86
2024/04/26 11:42:05;;;;;;;1.73;1.47;;;;;;;;;;5417065;26;20270;-87
2024/04/26 11:44:33;;;;;;;2.87;1.70;;;;;;;;;;5416563;26;20276;-85
2024/04/26 11:47:01;;;;;;;2.13;1.70;;;;;;;;;;5393688;26;20351;-86
2024/04/26 11:49:31;;;;;;;2.17;2.00;;;;;;;;;;5381650;26;20345;-86
2024/04/26 11:52:02;;;;;;;1.90;1.80;;;;;;;;;;5405733;26;20234;-86
2024/04/26 11:54:30;;;;;;;1.90;1.80;;;;;;;;;;5416819;26;20266;-86
2024/04/26 11:56:59;;;;;;;2.07;1.97;;;;;;;;;;5392851;26;20229;-86
2024/04/26 11:59:27;;;;;;;2.37;1.97;;;;;;;;;;5400498;26;20236;-87
2024/04/26 12:01:55;;;;;;;2.33;2.03;;;;;;;;;;5410313;26;20231;-87
2024/04/26 12:04:25;;;;;;;2.20;2.03;;;;;;;;;;5417304;26;20285;-87
2024/04/26 12:06:53;;;;;;;2.40;2.20;;;;;;;;;;5415998;26;20325;-87
2024/04/26 12:09:25;;;;;;;2.10;1.80;;;;;;;;;;5416171;26;20714;-86
2024/04/26 12:11:53;;;;;;;2.40;2.30;;;;;;;;;;5416385;26;20237;-87
2024/04/26 12:14:21;;;;;;;2.07;1.90;;;;;;;;;;5416370;26;20240;-86
2024/04/26 12:16:50;;;;;;;1.70;1.60;;;;;;;;;;5418030;26;20238;-87
2024/04/26 12:19:19;;;;;;;1.67;1.57;;;;;;;;;;5419916;26;20559;-86
2024/04/26 12:21:49;;;;;;;3.83;2.13;;;;;;;;;;5419288;26;20275;-87
2024/04/26 12:24:17;;;;;;;2.40;2.20;;;;;;;;;;5420022;26;20278;-86
2024/04/26 12:26:48;;;;;;;1.80;1.70;;;;;;;;;;5419951;26;20239;-86
2024/04/26 12:29:22;;;;;;;2.13;1.83;;;;;;;;;;5419501;26;20360;-87
2024/04/26 12:31:50;;;;;;;2.17;2.07;;;;;;;;;;5419890;26;20228;-87
2024/04/26 12:34:19;;;;;;;1.80;1.70;;;;;;;;;;5419534;26;20227;-86
2024/04/26 12:36:47;;;;;;;3.37;2.40;;;;;;;;;;5420189;26;20231;-87
2024/04/26 12:39:16;;;;;;;1.70;1.60;;;;;;;;;;5418799;26;20247;-87
2024/04/26 12:41:48;;;;;;;3.00;1.70;;;;;;;;;;5419486;26;20273;-87
2024/04/26 12:44:16;;;;;;;6.27;1.83;;;;;;;;;;5419245;26;20235;-87
2024/04/26 12:46:45;;;;;;;2.13;2.03;;;;;;;;;;5419693;26;20294;-87
2024/04/26 12:49:16;;;;;;;2.07;1.97;;;;;;;;;;5419166;26;20232;-87
2024/04/26 12:51:45;;;;;;;2.50;2.30;;;;;;;;;;5419360;26;20231;-88
2024/04/26 12:54:13;;;;;;;1.90;1.80;;;;;;;;;;5419379;26;20600;-88
2024/04/26 12:56:42;;;;;;;3.13;2.57;;;;;;;;;;5419075;26;20275;-87
2024/04/26 12:59:13;;;;;;;2.40;2.30;;;;;;;;;;5419858;26;20738;-88
2024/04/26 13:01:41;;;;;;;2.20;2.00;;;;;;;;;;5418611;26;20279;-87
2024/04/26 13:04:10;;;;;;;4.40;2.50;;;;;;;;;;5419220;26;20267;-88
2024/04/26 13:06:38;;;;;;;2.30;1.90;;;;;;;;;;5419466;26;20239;-88
2024/04/26 13:09:07;;;;;;;4.77;3.47;;;;;;;;;;5419303;26;20851;-87
2024/04/26 13:11:35;;;;;;;3.23;2.77;;;;;;;;;;5418875;26;20348;-86
2024/04/26 13:14:03;;;;;;;5.83;4.70;;;;;;;;;;5419706;26;20262;-88
2024/04/26 13:16:34;;;;;;;5.00;3.50;;;;;;;;;;5418622;26;20761;-87
2024/04/26 13:19:03;;;;;;;2.90;2.60;;;;;;;;;;5418922;26;20227;-86
2024/04/26 13:21:31;;;;;;;2.17;1.97;;;;;;;;;;5413045;26;20278;-86
2024/04/26 13:24:00;;;;;;;3.07;2.63;;;;;;;;;;5401733;26;20281;-86
2024/04/26 13:26:28;;;;;;;3.20;2.50;;;;;;;;;;5419097;26;20547;-87
2024/04/26 13:28:57;;;;;;;2.50;2.30;;;;;;;;;;5417894;26;20239;-87
2024/04/26 13:31:25;;;;;;;2.00;1.90;;;;;;;;;;5418922;26;20227;-87
2024/04/26 13:33:56;;;;;;;3.03;2.30;;;;;;;;;;5418654;26;20266;-87
2024/04/26 13:36:25;;;;;;;1.93;1.80;;;;;;;;;;5418740;26;20274;-87
2024/04/26 13:38:54;;;;;;;2.80;2.60;;;;;;;;;;5418691;26;20772;-86
2024/04/26 13:41:23;;;;;;;3.23;3.03;;;;;;;;;;5418912;26;20286;-86
2024/04/26 13:43:51;;;;;;;2.80;2.60;;;;;;;;;;5418801;26;20263;-85
2024/04/26 13:46:19;;;;;;;2.33;2.13;;;;;;;;;;5395374;26;20290;-86
2024/04/26 13:48:48;;;;;;;2.77;2.20;;;;;;;;;;5418738;26;20650;-86
2024/04/26 13:51:19;;;;;;;2.50;2.17;;;;;;;;;;5418823;26;20306;-86
2024/04/26 13:53:47;;;;;;;5.57;2.50;;;;;;;;;;5418679;26;20265;-86
2024/04/26 13:56:16;;;;;;;2.47;2.27;;;;;;;;;;5419022;26;20691;-86
2024/04/26 13:58:44;;;;;;;2.70;2.50;;;;;;;;;;5418568;26;20556;-86
2024/04/26 14:01:13;;;;;;;1.90;1.80;;;;;;;;;;5418439;26;20674;-86
2024/04/26 14:03:41;;;;;;;2.80;2.60;;;;;;;;;;5418145;26;20231;-86
2024/04/26 14:06:11;;;;;;;7.83;7.20;;;;;;;;;;5417820;26;20266;-86
2024/04/26 14:08:45;;;;;;;4.30;2.80;;;;;;;;;;5418379;26;20231;-86
2024/04/26 14:11:13;;;;;;;3.63;2.47;;;;;;;;;;5418236;26;20239;-87
2024/04/26 14:13:42;;;;;;;5.40;3.60;;;;;;;;;;5417913;26;20236;-87
2024/04/26 14:16:17;;;;;;;2.37;2.17;;;;;;;;;;5418160;26;20555;-87
2024/04/26 14:18:47;;;;;;;2.00;1.90;;;;;;;;;;5418536;26;20239;-87
2024/04/26 14:21:13;;;;;;;2.20;2.10;;;;;;;;;;5418174;26;20274;-87
2024/04/26 14:23:44;;;;;;;2.60;2.07;;;;;;;;;;5420871;26;20737;-86
2024/04/26 14:26:13;;;;;;;2.50;2.00;;;;;;;;;;5417447;26;20231;-87
2024/04/26 14:28:44;;;;;;;2.67;2.30;;;;;;;;;;5418487;26;20331;-86
2024/04/26 14:31:14;;;;;;;1.90;1.80;;;;;;;;;;5418310;26;20377;-86
2024/04/26 14:33:44;;;;;;;2.40;2.20;;;;;;;;;;5418761;26;20277;-86
2024/04/26 14:36:13;;;;;;;3.70;2.03;;;;;;;;;;5396439;26;20235;-86
2024/04/26 14:38:44;;;;;;;2.23;2.13;;;;;;;;;;5419507;26;20228;-86
2024/04/26 14:41:13;;;;;;;3.20;2.90;;;;;;;;;;5419246;26;20266;-87
2024/04/26 14:43:41;;;;;;;14.33;9.20;;;;;;;;;;5421538;26;20589;-86
2024/04/26 14:46:10;;;;;;;65.20;40.43;;;;;;;;;;5417815;26;20235;-87
2024/04/26 14:48:41;;;;;;;6.40;5.80;;;;;;;;;;5417695;26;20235;-85
2024/04/26 14:51:15;;;;;;;6.43;3.47;;;;;;;;;;5395370;26;20858;-87
2024/04/26 14:53:46;;;;;;;2.03;1.93;;;;;;;;;;5418093;26;20313;-86